createdAt,value
2019-01-17T00:00:58.083Z,82.50
2019-01-17T00:04:00.175Z,78.85
2019-01-17T00:06:48.522Z,97.08
2019-01-17T00:09:33.978Z,89.42
2019-01-17T00:12:30.178Z,92.80
2019-01-17T00:15:34.244Z,99.13
2019-01-17T00:18:27.683Z,100.72
2019-01-17T00:21:16.194Z,90.25
2019-01-17T00:24:02.785Z,99.52
2019-01-17T00:26:41.587Z,95.32
2019-01-17T00:29:30.071Z,98.65
2019-01-17T00:32:26.077Z,92.78
2019-01-17T00:35:25.189Z,92.53
2019-01-17T00:38:24.186Z,98.30
2019-01-17T00:41:14.374Z,99.20
2019-01-17T00:44:16.683Z,88.17
2019-01-17T00:47:05.420Z,87.95
2019-01-17T00:50:00.220Z,94.58
2019-01-17T00:52:48.927Z,86.25
2019-01-17T00:55:44.879Z,89.72
2019-01-17T00:58:32.733Z,87.40
2019-01-17T01:01:31.386Z,84.00
2019-01-17T01:04:20.884Z,82.70
2019-01-17T01:07:21.723Z,86.60
2019-01-17T01:10:10.153Z,80.90
2019-01-17T01:12:58.494Z,81.15
2019-01-17T01:15:54.499Z,69.03
2019-01-17T01:18:50.398Z,69.92
2019-01-17T01:21:52.240Z,72.27
2019-01-17T01:24:42.114Z,61.05
2019-01-17T01:27:38.067Z,64.17
2019-01-17T01:30:34.261Z,64.15
2019-01-17T01:33:30.521Z,59.67
2019-01-17T01:36:17.808Z,53.05
2019-01-17T01:39:06.392Z,59.65
2019-01-17T01:42:05.778Z,59.60
2019-01-17T01:45:08.034Z,52.43
2019-01-17T01:48:16.107Z,87.15
2019-01-17T01:51:09.308Z,107.20
2019-01-17T01:53:40.644Z,94.85
2019-01-17T01:56:11.675Z,146.07
2019-01-17T01:58:42.788Z,129.60
2019-01-17T02:01:14.138Z,158.18
2019-01-17T02:03:45.746Z,138.12
2019-01-17T02:06:16.851Z,143.82
2019-01-17T02:08:48.286Z,129.90
2019-01-17T02:11:19.423Z,75.83
2019-01-17T02:13:51.401Z,110.10
2019-01-17T02:16:22.986Z,109.65
2019-01-17T02:18:54.489Z,80.07
2019-01-17T02:21:25.711Z,76.90
2019-01-17T02:23:56.883Z,70.12
2019-01-17T02:26:28.001Z,67.35
2019-01-17T02:28:59.214Z,84.72
2019-01-17T02:31:30.473Z,85.10
2019-01-17T02:34:01.719Z,116.50
2019-01-17T02:36:32.898Z,67.53
2019-01-17T02:39:05.602Z,83.42
2019-01-17T02:41:36.982Z,67.45
2019-01-17T02:44:08.457Z,63.35
2019-01-17T02:46:39.766Z,62.95
2019-01-17T02:49:10.874Z,42.15
2019-01-17T02:51:41.946Z,45.75
2019-01-17T02:54:13.450Z,63.85
2019-01-17T02:56:44.849Z,64.67
2019-01-17T02:59:16.093Z,46.55
2019-01-17T03:01:47.449Z,47.73
2019-01-17T03:04:18.657Z,50.85
2019-01-17T03:06:49.711Z,27.62
2019-01-17T03:09:21.229Z,45.73
2019-01-17T03:11:52.592Z,38.85
2019-01-17T03:14:24.131Z,47.30
2019-01-17T03:16:55.491Z,25.68
2019-01-17T03:19:27.037Z,40.08
2019-01-17T03:21:58.349Z,42.25
2019-01-17T03:24:29.829Z,44.80
2019-01-17T03:27:00.908Z,49.98
2019-01-17T03:29:32.114Z,48.50
2019-01-17T03:32:03.316Z,52.70
2019-01-17T03:34:34.449Z,46.88
2019-01-17T03:37:05.910Z,62.90
2019-01-17T03:39:37.333Z,62.33
2019-01-17T03:42:08.729Z,58.15
2019-01-17T03:44:40.126Z,60.12
2019-01-17T03:47:11.590Z,58.35
2019-01-17T03:49:42.903Z,56.80
2019-01-17T03:52:14.054Z,58.33
2019-01-17T03:54:50.565Z,56.85
2019-01-17T03:57:18.972Z,51.08
2019-01-17T03:59:50.097Z,55.90
2019-01-17T04:02:21.278Z,50.23
2019-01-17T04:04:52.760Z,55.23
2019-01-17T04:07:24.327Z,63.15
2019-01-17T04:09:55.655Z,53.95
2019-01-17T04:12:26.824Z,54.60
2019-01-17T04:14:58.113Z,50.70
2019-01-17T04:17:29.630Z,50.75
2019-01-17T04:20:00.903Z,51.20
2019-01-17T04:22:32.041Z,48.23
2019-01-17T04:25:03.199Z,50.98
2019-01-17T04:27:34.605Z,59.15
2019-01-17T04:30:07.263Z,49.10
2019-01-17T04:32:38.555Z,51.58
2019-01-17T04:35:09.844Z,53.08
2019-01-17T04:37:40.899Z,48.40
2019-01-17T04:40:12.595Z,51.08
2019-01-17T04:42:43.860Z,49.20
2019-01-17T04:45:15.783Z,61.60
2019-01-17T04:47:47.162Z,62.88
2019-01-17T04:50:18.266Z,75.28
2019-01-17T04:52:49.543Z,67.10
2019-01-17T04:55:20.877Z,69.55
2019-01-17T04:57:52.237Z,67.50
2019-01-17T05:00:23.553Z,70.85
2019-01-17T05:02:54.935Z,76.17
2019-01-17T05:05:25.979Z,74.67
2019-01-17T05:07:57.196Z,70.08
2019-01-17T05:10:28.518Z,75.92
2019-01-17T05:12:59.866Z,63.85
2019-01-17T05:15:30.910Z,62.90
2019-01-17T05:18:02.020Z,73.60
2019-01-17T05:20:33.060Z,62.60
2019-01-17T05:23:04.261Z,69.50
2019-01-17T05:25:35.826Z,64.60
2019-01-17T05:28:07.185Z,63.63
2019-01-17T05:30:38.676Z,58.28
2019-01-17T05:33:09.895Z,48.70
2019-01-17T05:35:41.007Z,44.03
2019-01-17T05:38:12.104Z,43.83
2019-01-17T05:40:43.779Z,40.98
2019-01-17T05:43:15.275Z,39.75
2019-01-17T05:45:46.479Z,38.48
2019-01-17T05:48:17.513Z,41.48
2019-01-17T05:50:49.160Z,37.58
2019-01-17T05:53:20.555Z,40.90
2019-01-17T05:55:52.010Z,43.02
2019-01-17T05:58:23.343Z,41.98
2019-01-17T06:00:54.904Z,44.42
2019-01-17T06:03:26.362Z,36.25
2019-01-17T06:05:57.739Z,40.65
2019-01-17T06:08:29.273Z,45.50
2019-01-17T06:11:00.526Z,38.95
2019-01-17T06:13:31.839Z,39.38
2019-01-17T06:16:03.733Z,40.40
2019-01-17T06:18:34.989Z,43.23
2019-01-17T06:21:06.284Z,41.42
2019-01-17T06:23:37.347Z,38.98
2019-01-17T06:26:09.763Z,39.23
2019-01-17T06:28:41.030Z,39.38
2019-01-17T06:31:12.188Z,40.17
2019-01-17T06:33:43.541Z,42.58
2019-01-17T06:36:15.142Z,46.73
2019-01-17T06:38:46.521Z,40.67
2019-01-17T06:41:18.006Z,36.03
2019-01-17T06:43:49.400Z,38.40
2019-01-17T06:46:21.007Z,36.28
2019-01-17T06:48:52.483Z,42.17
2019-01-17T06:51:23.920Z,38.28
2019-01-17T06:53:55.377Z,43.55
2019-01-17T06:56:26.813Z,39.83
2019-01-17T06:58:58.178Z,40.45
2019-01-17T07:01:29.892Z,42.33
2019-01-17T07:04:01.413Z,38.75
2019-01-17T07:06:32.776Z,48.15
2019-01-17T07:09:08.074Z,47.55
2019-01-17T07:11:39.194Z,71.30
2019-01-17T07:14:10.304Z,102.30
2019-01-17T07:16:41.477Z,224.10
2019-01-17T07:19:12.743Z,247.82
2019-01-17T07:21:44.364Z,247.27
2019-01-17T07:24:15.736Z,228.98
2019-01-17T07:26:47.213Z,205.27
2019-01-17T07:29:18.605Z,193.13
2019-01-17T07:31:49.999Z,184.65
2019-01-17T07:34:21.164Z,183.50
2019-01-17T07:36:52.672Z,189.72
2019-01-17T07:39:25.197Z,185.37
2019-01-17T07:41:56.837Z,173.15
2019-01-17T07:44:28.056Z,170.02
2019-01-17T07:46:59.423Z,165.20
2019-01-17T07:49:30.650Z,185.22
2019-01-17T07:52:02.174Z,179.75
2019-01-17T07:54:33.602Z,159.10
2019-01-17T07:57:04.838Z,150.82
2019-01-17T07:59:36.283Z,147.30
2019-01-17T08:02:07.586Z,132.82
2019-01-17T08:04:38.947Z,126.60
2019-01-17T08:07:10.325Z,101.12
2019-01-17T08:09:41.410Z,115.00
2019-01-17T08:12:12.595Z,65.05
2019-01-17T08:14:43.695Z,91.08
2019-01-17T08:17:14.943Z,74.87
2019-01-17T08:19:46.332Z,97.45
2019-01-17T08:22:17.723Z,94.45
2019-01-17T08:24:48.805Z,82.25
2019-01-17T08:27:21.064Z,72.82
2019-01-17T08:29:52.423Z,78.75
2019-01-17T08:32:23.818Z,86.85
2019-01-17T08:34:55.287Z,76.07
2019-01-17T08:37:26.665Z,89.77
2019-01-17T08:39:57.843Z,92.05
2019-01-17T08:42:29.211Z,89.92
2019-01-17T08:45:00.603Z,96.20
2019-01-17T08:47:32.082Z,103.85
2019-01-17T08:50:03.410Z,96.42
2019-01-17T08:52:35.143Z,101.30
2019-01-17T08:55:06.552Z,98.75
2019-01-17T08:57:38.173Z,86.85
2019-01-17T09:00:12.690Z,77.80
2019-01-17T09:02:44.152Z,76.85
2019-01-17T09:05:15.430Z,72.15
2019-01-17T09:07:46.648Z,69.22
2019-01-17T09:10:22.012Z,67.10
2019-01-17T09:12:53.838Z,75.40
2019-01-17T09:15:30.348Z,67.75
2019-01-17T09:18:02.056Z,67.62
2019-01-17T09:20:34.333Z,78.10
2019-01-17T09:23:05.843Z,79.12
2019-01-17T09:25:37.193Z,81.87
2019-01-17T09:28:08.707Z,85.95
2019-01-17T09:30:40.287Z,93.65
2019-01-17T09:33:11.540Z,97.55
2019-01-17T09:35:43.536Z,117.67
2019-01-17T09:38:14.768Z,119.75
2019-01-17T09:40:46.144Z,118.15
2019-01-17T09:43:17.393Z,118.47
2019-01-17T09:45:48.968Z,126.25
2019-01-17T09:48:20.624Z,119.82
2019-01-17T09:50:51.845Z,123.00
2019-01-17T09:53:23.284Z,120.90
2019-01-17T09:55:54.714Z,116.95
2019-01-17T09:58:26.163Z,128.27
2019-01-17T10:00:57.646Z,121.20
2019-01-17T10:03:28.847Z,112.75
2019-01-17T10:06:00.375Z,109.95
2019-01-17T10:08:31.771Z,114.50
2019-01-17T10:11:04.002Z,117.08
2019-01-17T10:13:35.347Z,116.20
2019-01-17T10:16:36.328Z,123.53
2019-01-17T10:19:23.359Z,112.00
2019-01-17T10:22:28.166Z,110.32
2019-01-17T10:25:30.412Z,101.10
2019-01-17T10:28:53.894Z,109.07
2019-01-17T10:32:17.726Z,98.33
2019-01-17T10:35:42.018Z,99.58
2019-01-17T10:38:56.898Z,94.92
2019-01-17T10:41:53.615Z,116.17
2019-01-17T10:45:17.906Z,103.40
2019-01-17T10:48:35.459Z,107.37
2019-01-17T10:51:49.486Z,96.85
2019-01-17T10:55:01.530Z,96.90
2019-01-17T10:57:43.437Z,102.82
2019-01-17T11:00:43.154Z,88.00
2019-01-17T11:03:43.860Z,96.37
2019-01-17T11:06:44.555Z,93.10
2019-01-17T11:09:28.314Z,94.77
2019-01-17T11:12:30.421Z,96.30
2019-01-17T11:15:36.658Z,90.50
2019-01-17T11:18:57.906Z,90.75
2019-01-17T11:22:02.687Z,97.25
2019-01-17T11:25:06.260Z,103.95
2019-01-17T11:28:15.739Z,116.88
2019-01-17T11:31:48.703Z,103.78
2019-01-17T11:34:58.900Z,101.65
2019-01-17T11:38:13.133Z,89.80
2019-01-17T11:41:28.235Z,97.53
2019-01-17T11:44:49.178Z,93.82
2019-01-17T11:48:03.346Z,92.50
2019-01-17T11:51:08.857Z,83.52
2019-01-17T11:54:13.334Z,93.35
2019-01-17T11:57:23.114Z,84.72
2019-01-17T12:00:29.770Z,80.50
2019-01-17T12:03:25.720Z,78.92
2019-01-17T12:05:57.250Z,84.83
2019-01-17T12:08:28.851Z,82.82
2019-01-17T12:11:00.038Z,79.85
2019-01-17T12:13:31.633Z,74.47
2019-01-17T12:16:02.952Z,70.95
2019-01-17T12:18:34.330Z,69.85
2019-01-17T12:21:06.058Z,60.40
2019-01-17T12:23:37.476Z,60.73
2019-01-17T12:26:08.941Z,65.97
2019-01-17T12:28:40.344Z,56.08
2019-01-17T12:31:11.840Z,62.25
2019-01-17T12:33:43.259Z,67.25
2019-01-17T12:36:14.919Z,69.80
2019-01-17T12:38:46.379Z,68.40
2019-01-17T12:41:18.000Z,74.20
2019-01-17T12:43:49.280Z,68.78
2019-01-17T12:46:20.774Z,74.27
2019-01-17T12:48:52.246Z,78.78
2019-01-17T12:51:23.605Z,71.82
2019-01-17T12:53:55.158Z,66.15
2019-01-17T12:56:26.563Z,74.95
2019-01-17T12:58:58.251Z,68.55
2019-01-17T13:01:30.684Z,70.20
2019-01-17T13:04:02.355Z,74.85
2019-01-17T13:06:33.614Z,69.32
2019-01-17T13:09:07.084Z,70.50
2019-01-17T13:11:38.629Z,72.12
2019-01-17T13:14:09.931Z,66.67
2019-01-17T13:16:41.147Z,78.42
2019-01-17T13:19:12.690Z,70.40
2019-01-17T13:21:44.023Z,64.60
2019-01-17T13:24:15.318Z,65.03
2019-01-17T13:26:46.576Z,67.50
2019-01-17T13:29:18.059Z,69.32
2019-01-17T13:31:49.503Z,73.70
2019-01-17T13:34:20.673Z,60.33
2019-01-17T13:36:52.148Z,64.47
2019-01-17T13:39:23.824Z,60.85
2019-01-17T13:41:55.177Z,66.37
2019-01-17T13:44:26.859Z,68.83
2019-01-17T13:46:58.395Z,70.05
2019-01-17T13:49:30.079Z,61.88
2019-01-17T13:52:01.534Z,70.72
2019-01-17T13:54:32.887Z,70.15
2019-01-17T13:57:07.684Z,68.85
2019-01-17T13:59:37.283Z,66.50
2019-01-17T14:02:08.728Z,66.95
2019-01-17T14:04:40.064Z,61.83
2019-01-17T14:07:11.479Z,61.18
2019-01-17T14:09:42.591Z,67.08
2019-01-17T14:12:13.744Z,71.00
2019-01-17T14:14:45.185Z,68.02
2019-01-17T14:17:16.616Z,70.92
2019-01-17T14:19:47.767Z,66.87
2019-01-17T14:22:19.334Z,67.45
2019-01-17T14:24:50.568Z,63.73
2019-01-17T14:27:21.752Z,72.90
2019-01-17T14:29:53.177Z,77.40
2019-01-17T14:32:24.731Z,91.45
2019-01-17T14:34:56.070Z,76.42
2019-01-17T14:37:27.403Z,87.30
2019-01-17T14:39:58.719Z,90.35
2019-01-17T14:42:30.294Z,90.87
2019-01-17T14:45:01.716Z,101.38
2019-01-17T14:47:33.166Z,102.70
2019-01-17T14:50:05.539Z,91.65
2019-01-17T14:52:36.883Z,95.67
2019-01-17T14:55:08.601Z,98.10
2019-01-17T14:57:39.927Z,95.07
2019-01-17T15:00:14.679Z,97.02
2019-01-17T15:02:46.099Z,109.27
2019-01-17T15:05:17.809Z,110.25
2019-01-17T15:07:49.222Z,110.08
2019-01-17T15:10:26.387Z,107.05
2019-01-17T15:12:57.661Z,141.18
2019-01-17T15:15:28.793Z,130.25
2019-01-17T15:18:00.241Z,136.00
2019-01-17T15:20:31.744Z,142.25
2019-01-17T15:23:03.353Z,139.00
2019-01-17T15:25:34.755Z,142.30
2019-01-17T15:28:06.344Z,142.87
2019-01-17T15:30:37.985Z,143.97
2019-01-17T15:33:09.196Z,146.22
2019-01-17T15:35:40.682Z,134.55
2019-01-17T15:38:12.095Z,135.52
2019-01-17T15:40:43.328Z,128.53
2019-01-17T15:43:14.604Z,148.17
2019-01-17T15:45:45.989Z,137.72
2019-01-17T15:48:17.141Z,139.30
2019-01-17T15:50:48.564Z,135.43
2019-01-17T15:53:19.731Z,138.40
2019-01-17T15:55:50.803Z,141.85
2019-01-17T15:58:21.943Z,144.47
2019-01-17T16:00:53.549Z,152.87
2019-01-17T16:03:24.666Z,150.57
2019-01-17T16:05:56.047Z,145.32
2019-01-17T16:08:27.593Z,151.63
2019-01-17T16:10:59.057Z,143.00
2019-01-17T16:13:30.558Z,144.15
2019-01-17T16:16:01.649Z,134.40
2019-01-17T16:18:32.988Z,148.87
2019-01-17T16:21:04.201Z,139.22
2019-01-17T16:23:35.473Z,139.88
2019-01-17T16:26:06.690Z,132.07
2019-01-17T16:28:38.220Z,135.20
2019-01-17T16:31:09.548Z,119.55
2019-01-17T16:33:40.971Z,129.38
2019-01-17T16:36:12.363Z,138.62
2019-01-17T16:38:43.724Z,139.85
2019-01-17T16:41:15.117Z,136.37
2019-01-17T16:43:46.565Z,132.95
2019-01-17T16:46:18.042Z,172.22
2019-01-17T16:48:49.310Z,144.97
2019-01-17T16:51:20.433Z,142.30
2019-01-17T16:53:52.761Z,150.40
2019-01-17T16:56:24.168Z,143.45
2019-01-17T16:58:55.297Z,144.55
2019-01-17T17:01:26.833Z,139.57
2019-01-17T17:03:58.207Z,147.62
2019-01-17T17:06:30.094Z,159.35
2019-01-17T17:09:01.538Z,138.85
2019-01-17T17:11:34.198Z,142.13
2019-01-17T17:14:05.439Z,141.20
2019-01-17T17:16:36.601Z,146.77
2019-01-17T17:19:08.235Z,156.67
2019-01-17T17:21:39.403Z,142.37
2019-01-17T17:24:10.551Z,149.85
2019-01-17T17:26:41.746Z,158.07
2019-01-17T17:29:13.013Z,145.70
2019-01-17T17:31:44.105Z,146.60
2019-01-17T17:34:15.263Z,141.47
2019-01-17T17:36:46.383Z,148.43
2019-01-17T17:39:17.704Z,140.55
2019-01-17T17:41:49.033Z,139.18
2019-01-17T17:44:20.285Z,154.32
2019-01-17T17:46:51.711Z,147.22
2019-01-17T17:49:22.950Z,154.45
2019-01-17T17:51:53.987Z,156.93
2019-01-17T17:54:25.243Z,155.32
2019-01-17T17:56:56.476Z,146.85
2019-01-17T17:59:27.963Z,160.52
2019-01-17T18:02:03.991Z,156.40
2019-01-17T18:04:35.533Z,154.68
2019-01-17T18:07:06.744Z,154.35
2019-01-17T18:09:37.974Z,164.40
2019-01-17T18:12:09.519Z,152.25
2019-01-17T18:14:40.781Z,167.00
2019-01-17T18:17:12.191Z,158.90
2019-01-17T18:19:43.403Z,167.75
2019-01-17T18:22:14.632Z,161.97
2019-01-17T18:24:45.978Z,173.22
2019-01-17T18:27:17.210Z,175.90
2019-01-17T18:29:48.773Z,190.68
2019-01-17T18:32:19.857Z,203.80
2019-01-17T18:34:50.960Z,237.40
2019-01-17T18:37:22.263Z,175.95
2019-01-17T18:39:53.416Z,191.03
2019-01-17T18:42:24.742Z,185.03
2019-01-17T18:44:56.013Z,178.23
2019-01-17T18:47:27.217Z,175.60
2019-01-17T18:49:58.806Z,169.90
2019-01-17T18:52:30.384Z,175.12
2019-01-17T18:55:01.725Z,169.87
2019-01-17T18:57:32.862Z,179.80
2019-01-17T19:00:06.600Z,167.43
2019-01-17T19:02:38.118Z,167.98
2019-01-17T19:05:09.902Z,156.37
2019-01-17T19:07:41.291Z,148.32
2019-01-17T19:10:12.581Z,145.62
2019-01-17T19:12:43.814Z,156.72
2019-01-17T19:15:20.690Z,155.37
2019-01-17T19:17:52.119Z,159.85
2019-01-17T19:20:23.403Z,156.60
2019-01-17T19:22:54.769Z,155.95
2019-01-17T19:25:25.860Z,155.30
2019-01-17T19:27:57.111Z,196.02
2019-01-17T19:30:30.954Z,159.57
2019-01-17T19:33:02.256Z,156.07
2019-01-17T19:35:33.865Z,157.78
2019-01-17T19:38:05.081Z,163.20
2019-01-17T19:40:36.551Z,161.77
2019-01-17T19:43:07.972Z,170.00
2019-01-17T19:45:39.219Z,163.57
2019-01-17T19:48:10.540Z,180.90
2019-01-17T19:50:41.810Z,162.40
2019-01-17T19:53:12.993Z,155.97
2019-01-17T19:55:44.327Z,198.00
2019-01-17T19:58:15.730Z,326.92
2019-01-17T20:00:48.150Z,407.02
2019-01-17T20:03:19.593Z,319.02
2019-01-17T20:05:50.950Z,350.45
2019-01-17T20:08:22.263Z,258.57
2019-01-17T20:10:53.478Z,282.35
2019-01-17T20:13:24.809Z,351.12
2019-01-17T20:15:56.319Z,268.07
2019-01-17T20:18:28.710Z,293.33
2019-01-17T20:20:59.912Z,319.10
2019-01-17T20:23:31.380Z,257.48
2019-01-17T20:26:02.489Z,258.90
2019-01-17T20:28:35.777Z,306.80
2019-01-17T20:31:07.486Z,264.55
2019-01-17T20:33:38.775Z,244.57
2019-01-17T20:36:10.136Z,253.92
2019-01-17T20:38:41.545Z,244.62
2019-01-17T20:41:13.039Z,226.10
2019-01-17T20:43:44.210Z,234.30
2019-01-17T20:46:15.592Z,225.43
2019-01-17T20:48:46.893Z,233.38
2019-01-17T20:51:18.430Z,213.62
2019-01-17T20:53:49.575Z,221.32
2019-01-17T20:56:21.761Z,225.55
2019-01-17T20:58:53.119Z,229.05
2019-01-17T21:01:35.277Z,200.70
2019-01-17T21:04:08.054Z,214.88
2019-01-17T21:06:39.546Z,204.18
2019-01-17T21:09:11.386Z,220.27
2019-01-17T21:11:42.654Z,221.90
2019-01-17T21:14:13.852Z,208.07
2019-01-17T21:16:45.198Z,231.82
2019-01-17T21:19:16.502Z,224.67
2019-01-17T21:21:47.892Z,217.47
2019-01-17T21:24:19.018Z,210.10
2019-01-17T21:26:50.530Z,231.95
2019-01-17T21:29:21.914Z,235.95
2019-01-17T21:31:53.391Z,235.35
2019-01-17T21:34:24.600Z,227.38
2019-01-17T21:36:55.739Z,228.30
2019-01-17T21:39:27.937Z,233.60
2019-01-17T21:41:59.505Z,236.03
2019-01-17T21:44:31.048Z,237.05
2019-01-17T21:47:02.246Z,221.15
2019-01-17T21:49:33.600Z,229.40
2019-01-17T21:52:05.118Z,216.85
2019-01-17T21:54:36.593Z,221.53
2019-01-17T21:57:07.726Z,219.05
2019-01-17T21:59:38.847Z,217.35
2019-01-17T22:02:10.031Z,227.57
2019-01-17T22:04:41.219Z,211.97
2019-01-17T22:07:12.772Z,192.45
2019-01-17T22:09:44.175Z,197.68
2019-01-17T22:12:15.446Z,199.68
2019-01-17T22:14:46.489Z,205.22
2019-01-17T22:17:17.842Z,211.92
2019-01-17T22:19:49.262Z,208.23
2019-01-17T22:22:20.665Z,192.87
2019-01-17T22:24:52.254Z,197.87
2019-01-17T22:27:23.604Z,184.60
2019-01-17T22:29:54.890Z,196.43
2019-01-17T22:32:26.061Z,176.93
2019-01-17T22:34:58.368Z,190.03
2019-01-17T22:37:29.818Z,187.75
2019-01-17T22:40:01.562Z,179.00
2019-01-17T22:42:33.279Z,178.87
2019-01-17T22:45:05.457Z,166.00
2019-01-17T22:47:36.747Z,166.60
2019-01-17T22:50:10.007Z,171.02
2019-01-17T22:52:41.281Z,167.28
2019-01-17T22:55:12.493Z,164.07
2019-01-17T22:57:43.883Z,159.57
2019-01-17T23:00:29.821Z,165.85
2019-01-17T23:03:03.092Z,161.25
2019-01-17T23:05:34.746Z,163.18
2019-01-17T23:08:05.952Z,156.50
2019-01-17T23:10:37.221Z,151.50
2019-01-17T23:13:08.811Z,153.72
2019-01-17T23:15:40.065Z,154.80
2019-01-17T23:18:11.469Z,134.52
2019-01-17T23:20:42.935Z,141.70
2019-01-17T23:23:14.410Z,142.93
2019-01-17T23:25:45.637Z,141.22
2019-01-17T23:28:17.012Z,133.80
2019-01-17T23:30:48.178Z,139.43
2019-01-17T23:33:19.309Z,128.20
2019-01-17T23:35:50.429Z,141.03
2019-01-17T23:38:21.681Z,131.40
2019-01-17T23:40:52.731Z,125.42
2019-01-17T23:43:23.882Z,125.05
2019-01-17T23:45:55.174Z,120.37
2019-01-17T23:48:26.298Z,135.95
2019-01-17T23:50:57.338Z,119.20
2019-01-17T23:53:28.741Z,132.78
2019-01-17T23:56:00.146Z,116.60
2019-01-17T23:58:31.228Z,120.13
